Alachua, Florida
Current Conditions -  °F | °C
As of 10:53 AM on Friday 24 Oct 2014 (Local Time) from KGNV Reporting Station
Clear Clear  
Wind Chill: 68°   Ceiling: Unl
Heat Index: 68°   Visibility: 10mi
Dew Point: 53°   Wind: 9mph
Humidity: 59%   Direction: 40°NE
Pressure: 30.06"   Gusts: NA
Location:  29.78°N, 82.48°W
Report Text: KGNV 241453Z 04008KT 10SM CLR 20/12 A3006 RMK AO2 SLP178 T02000117 51015
Loading
Personal Weather Stations






























Interactive Weather Map
Tropical Storm Tracking
New forecast layout! Learn more

10-Day Weather Forecast

Advertisements
Track Severe Weather on mobile